createdAt,value
2018-03-21T00:00:17.751Z,1008.08
2018-03-21T00:01:23.720Z,1008.06
2018-03-21T00:02:29.148Z,1008.12
2018-03-21T00:03:35.104Z,1008.14
2018-03-21T00:04:41.040Z,1008.10
2018-03-21T00:05:46.987Z,1008.16
2018-03-21T00:06:53.453Z,1008.14
2018-03-21T00:07:58.884Z,1008.17
2018-03-21T00:09:04.951Z,1008.15
2018-03-21T00:10:10.785Z,1008.13
2018-03-21T00:11:16.727Z,1008.14
2018-03-21T00:12:22.701Z,1008.15
2018-03-21T00:13:29.126Z,1008.14
2018-03-21T00:14:34.585Z,1008.12
2018-03-21T00:15:40.527Z,1008.11
2018-03-21T00:16:46.470Z,1008.16
2018-03-21T00:17:52.443Z,1008.14
2018-03-21T00:18:58.405Z,1008.16
2018-03-21T00:20:04.333Z,1008.16
2018-03-21T00:21:10.314Z,1008.18
2018-03-21T00:22:16.239Z,1008.19
2018-03-21T00:23:22.236Z,1008.15
2018-03-21T00:24:28.158Z,1008.18
2018-03-21T00:25:34.114Z,1008.17
2018-03-21T00:26:40.068Z,1008.21
2018-03-21T00:27:46.027Z,1008.19
2018-03-21T00:28:52.009Z,1008.19
2018-03-21T00:29:58.438Z,1008.21
2018-03-21T00:31:03.909Z,1008.18
2018-03-21T00:32:09.853Z,1008.22
2018-03-21T00:33:15.850Z,1008.20
2018-03-21T00:34:22.327Z,1008.23
2018-03-21T00:35:27.750Z,1008.22
2018-03-21T00:36:33.705Z,1008.23
2018-03-21T00:37:39.653Z,1008.26
2018-03-21T00:38:45.642Z,1008.20
2018-03-21T00:39:51.600Z,1008.26
2018-03-21T00:40:57.536Z,1008.29
2018-03-21T00:42:04.001Z,1008.33
2018-03-21T00:43:09.490Z,1008.28
2018-03-21T00:44:15.416Z,1008.34
2018-03-21T00:45:21.365Z,1008.33
2018-03-21T00:46:27.319Z,1008.32
2018-03-21T00:47:33.290Z,1008.35
2018-03-21T00:48:40.770Z,1008.34
2018-03-21T00:49:45.210Z,1008.38
2018-03-21T00:50:51.173Z,1008.39
2018-03-21T00:51:57.133Z,1008.40
2018-03-21T00:53:03.094Z,1008.40
2018-03-21T00:54:09.067Z,1008.40
2018-03-21T00:55:15.510Z,1008.38
2018-03-21T00:56:21.454Z,1008.38
2018-03-21T00:57:27.415Z,1008.40
2018-03-21T00:58:32.881Z,1008.38
2018-03-21T00:59:38.974Z,1008.41
2018-03-21T01:00:44.815Z,1008.38
2018-03-21T01:01:50.765Z,1008.45
2018-03-21T01:02:56.729Z,1008.44
2018-03-21T01:04:02.676Z,1008.43
2018-03-21T01:05:09.161Z,1008.46
2018-03-21T01:06:14.604Z,1008.51
2018-03-21T01:07:20.579Z,1008.51
2018-03-21T01:08:26.533Z,1008.48
2018-03-21T01:09:32.984Z,1008.53
2018-03-21T01:10:38.475Z,1008.52
2018-03-21T01:11:44.413Z,1008.57
2018-03-21T01:12:50.405Z,1008.56
2018-03-21T01:13:56.345Z,1008.56
2018-03-21T01:15:03.125Z,1008.54
2018-03-21T01:16:08.274Z,1008.53
2018-03-21T01:17:14.725Z,1008.55
2018-03-21T01:18:20.693Z,1008.56
2018-03-21T01:19:26.163Z,1008.55
2018-03-21T01:20:32.131Z,1008.58
2018-03-21T01:21:38.081Z,1008.53
2018-03-21T01:22:44.060Z,1008.51
2018-03-21T01:23:50.004Z,1008.52
2018-03-21T01:24:56.466Z,1008.53
2018-03-21T01:26:01.948Z,1008.53
2018-03-21T01:27:08.394Z,1008.52
2018-03-21T01:28:14.353Z,1008.49
2018-03-21T01:29:20.327Z,1008.51
2018-03-21T01:30:25.798Z,1008.49
2018-03-21T01:31:31.744Z,1008.49
2018-03-21T01:32:38.200Z,1008.50
2018-03-21T01:33:43.699Z,1008.53
2018-03-21T01:34:50.638Z,1008.55
2018-03-21T01:35:55.625Z,1008.52
2018-03-21T01:37:02.065Z,1008.55
2018-03-21T01:38:08.027Z,1008.49
2018-03-21T01:39:13.979Z,1008.51
2018-03-21T01:40:19.954Z,1008.51
2018-03-21T01:41:25.943Z,1008.53
2018-03-21T01:42:31.385Z,1008.54
2018-03-21T01:43:37.849Z,1008.51
2018-03-21T01:44:43.308Z,1008.59
2018-03-21T01:45:49.500Z,1008.53
2018-03-21T01:46:55.739Z,1008.55
2018-03-21T01:48:01.207Z,1008.56
2018-03-21T01:49:07.653Z,1008.56
2018-03-21T01:50:13.131Z,1008.54
2018-03-21T01:51:19.113Z,1008.57
2018-03-21T01:52:25.551Z,1008.57
2018-03-21T01:53:31.523Z,1008.55
2018-03-21T01:54:36.986Z,1008.58
2018-03-21T01:55:42.952Z,1008.61
2018-03-21T01:56:49.432Z,1008.60
2018-03-21T01:57:55.368Z,1008.64
2018-03-21T01:59:01.329Z,1008.63
2018-03-21T02:00:07.308Z,1008.61
2018-03-21T02:01:13.280Z,1008.59
2018-03-21T02:02:18.756Z,1008.62
2018-03-21T02:03:25.205Z,1008.60
2018-03-21T02:04:30.677Z,1008.65
2018-03-21T02:05:36.648Z,1008.62
2018-03-21T02:06:43.137Z,1008.61
2018-03-21T02:07:48.571Z,1008.62
2018-03-21T02:08:56.033Z,1008.63
2018-03-21T02:10:00.504Z,1008.63
2018-03-21T02:11:06.963Z,1008.66
2018-03-21T02:12:12.450Z,1008.67
2018-03-21T02:13:18.403Z,1008.60
2018-03-21T02:14:24.949Z,1008.59
2018-03-21T02:15:30.946Z,1008.58
2018-03-21T02:16:36.800Z,1008.60
2018-03-21T02:17:42.778Z,1008.59
2018-03-21T02:18:48.726Z,1008.57
2018-03-21T02:19:54.697Z,1008.59
2018-03-21T02:21:00.671Z,1008.63
2018-03-21T02:22:06.669Z,1008.59
2018-03-21T02:23:12.102Z,1008.62
2018-03-21T02:24:18.558Z,1008.61
2018-03-21T02:25:24.517Z,1008.59
2018-03-21T02:26:29.982Z,1008.60
2018-03-21T02:27:35.986Z,1008.60
2018-03-21T02:28:42.417Z,1008.55
2018-03-21T02:29:48.364Z,1008.57
2018-03-21T02:30:54.340Z,1008.55
2018-03-21T02:32:00.296Z,1008.58
2018-03-21T02:33:06.278Z,1008.56
2018-03-21T02:34:11.740Z,1008.56
2018-03-21T02:35:18.192Z,1008.57
2018-03-21T02:36:23.663Z,1008.61
2018-03-21T02:37:29.638Z,1008.59
2018-03-21T02:38:35.588Z,1008.62
2018-03-21T02:39:41.546Z,1008.58
2018-03-21T02:40:47.491Z,1008.63
2018-03-21T02:41:53.462Z,1008.64
2018-03-21T02:42:59.894Z,1008.66
2018-03-21T02:44:05.389Z,1008.64
2018-03-21T02:45:12.814Z,1008.69
2018-03-21T02:46:17.776Z,1008.71
2018-03-21T02:47:23.755Z,1008.68
2018-03-21T02:48:29.728Z,1008.69
2018-03-21T02:49:35.662Z,1008.68
2018-03-21T02:50:41.132Z,1008.68
2018-03-21T02:51:47.580Z,1008.67
2018-03-21T02:52:53.543Z,1008.64
2018-03-21T02:53:59.038Z,1008.62
2018-03-21T02:55:05.502Z,1008.62
2018-03-21T02:56:10.935Z,1008.59
2018-03-21T02:57:17.388Z,1008.63
2018-03-21T02:58:22.971Z,1008.64
2018-03-21T02:59:28.849Z,1008.65
2018-03-21T03:00:35.288Z,1008.62
2018-03-21T03:01:41.244Z,1008.61
2018-03-21T03:02:46.714Z,1008.68
2018-03-21T03:03:53.197Z,1008.62
2018-03-21T03:04:59.163Z,1008.67
2018-03-21T03:06:04.630Z,1008.61
2018-03-21T03:07:11.088Z,1008.64
2018-03-21T03:08:16.547Z,1008.65
2018-03-21T03:09:23.033Z,1008.67
2018-03-21T03:10:28.475Z,1008.63
2018-03-21T03:11:34.934Z,1008.58
2018-03-21T03:12:40.413Z,1008.57
2018-03-21T03:13:46.370Z,1008.56
2018-03-21T03:14:52.945Z,1008.58
2018-03-21T03:15:58.807Z,1008.58
2018-03-21T03:17:04.776Z,1008.57
2018-03-21T03:18:10.744Z,1008.64
2018-03-21T03:19:16.707Z,1008.58
2018-03-21T03:20:22.193Z,1008.58
2018-03-21T03:21:28.639Z,1008.64
2018-03-21T03:22:34.608Z,1008.63
2018-03-21T03:23:40.580Z,1008.65
2018-03-21T03:24:46.047Z,1008.68
2018-03-21T03:25:52.523Z,1008.70
2018-03-21T03:26:58.469Z,1008.65
2018-03-21T03:28:04.441Z,1008.67
2018-03-21T03:29:10.705Z,1008.67
2018-03-21T03:30:15.868Z,1008.64
2018-03-21T03:31:21.850Z,1008.71
2018-03-21T03:32:27.792Z,1008.73
2018-03-21T03:33:33.776Z,1008.76
2018-03-21T03:34:39.718Z,1008.70
2018-03-21T03:35:45.719Z,1008.62
2018-03-21T03:36:52.159Z,1008.67
2018-03-21T03:37:57.614Z,1008.66
2018-03-21T03:39:04.073Z,1008.67
2018-03-21T03:40:10.040Z,1008.69
2018-03-21T03:41:16.075Z,1008.70
2018-03-21T03:42:21.996Z,1008.65
2018-03-21T03:43:27.450Z,1008.70
2018-03-21T03:44:33.895Z,1008.75
2018-03-21T03:45:39.894Z,1008.72
2018-03-21T03:46:45.326Z,1008.75
2018-03-21T03:47:51.793Z,1008.71
2018-03-21T03:48:57.746Z,1008.75
2018-03-21T03:50:03.713Z,1008.72
2018-03-21T03:51:09.811Z,1008.74
2018-03-21T03:52:15.160Z,1008.73
2018-03-21T03:53:21.602Z,1008.78
2018-03-21T03:54:27.572Z,1008.78
2018-03-21T03:55:33.053Z,1008.81
2018-03-21T03:56:39.517Z,1008.77
2018-03-21T03:57:45.485Z,1008.76
2018-03-21T03:58:51.420Z,1008.78
2018-03-21T03:59:56.995Z,1008.82
2018-03-21T04:01:02.844Z,1008.87
2018-03-21T04:02:09.332Z,1008.82
2018-03-21T04:03:15.278Z,1008.85
2018-03-21T04:04:21.232Z,1008.81
2018-03-21T04:05:26.700Z,1008.84
2018-03-21T04:06:33.180Z,1008.79
2018-03-21T04:07:39.135Z,1008.79
2018-03-21T04:08:45.082Z,1008.84
2018-03-21T04:09:51.055Z,1008.86
2018-03-21T04:10:57.014Z,1008.82
2018-03-21T04:12:03.003Z,1008.89
2018-03-21T04:13:08.928Z,1008.86
2018-03-21T04:14:14.400Z,1008.85
2018-03-21T04:15:20.934Z,1008.87
2018-03-21T04:16:26.934Z,1008.90
2018-03-21T04:17:32.309Z,1008.89
2018-03-21T04:18:38.736Z,1008.91
2018-03-21T04:19:44.697Z,1008.95
2018-03-21T04:20:50.177Z,1008.90
2018-03-21T04:21:56.642Z,1008.91
2018-03-21T04:23:02.613Z,1008.89
2018-03-21T04:24:08.542Z,1008.85
2018-03-21T04:25:14.524Z,1008.89
2018-03-21T04:26:20.466Z,1008.92
2018-03-21T04:27:26.428Z,1008.90
2018-03-21T04:28:32.370Z,1008.91
2018-03-21T04:29:37.821Z,1008.90
2018-03-21T04:30:44.376Z,1008.92
2018-03-21T04:31:50.221Z,1008.92
2018-03-21T04:32:55.741Z,1008.91
2018-03-21T04:34:02.137Z,1008.88
2018-03-21T04:35:08.100Z,1008.92
2018-03-21T04:36:13.568Z,1008.91
2018-03-21T04:37:20.005Z,1008.99
2018-03-21T04:38:25.498Z,1008.95
2018-03-21T04:39:31.420Z,1008.97
2018-03-21T04:40:37.903Z,1009.00
2018-03-21T04:41:43.844Z,1008.96
2018-03-21T04:42:49.763Z,1008.99
2018-03-21T04:43:55.235Z,1008.99
2018-03-21T04:45:01.680Z,1008.98
2018-03-21T04:46:07.630Z,1008.97
2018-03-21T04:47:13.063Z,1008.94
2018-03-21T04:48:19.553Z,1008.97
2018-03-21T04:49:24.962Z,1008.96
2018-03-21T04:50:30.924Z,1008.98
2018-03-21T04:51:37.362Z,1008.96
2018-03-21T04:52:42.839Z,1008.96
2018-03-21T04:53:48.809Z,1008.99
2018-03-21T04:54:55.200Z,1008.99
2018-03-21T04:56:01.167Z,1008.99
2018-03-21T04:57:07.131Z,1009.01
2018-03-21T04:58:13.075Z,1009.02
2018-03-21T04:59:18.542Z,1009.00
2018-03-21T05:00:24.965Z,1008.99
2018-03-21T05:01:30.413Z,1008.98
2018-03-21T05:02:36.929Z,1009.04
2018-03-21T05:03:42.304Z,1009.04
2018-03-21T05:04:48.781Z,1009.09
2018-03-21T05:05:54.191Z,1009.05
2018-03-21T05:07:00.645Z,1009.12
2018-03-21T05:08:06.081Z,1009.09
2018-03-21T05:09:12.560Z,1009.13
2018-03-21T05:10:17.978Z,1009.11
2018-03-21T05:11:24.401Z,1009.22
2018-03-21T05:12:30.049Z,1009.18
2018-03-21T05:13:36.292Z,1009.24
2018-03-21T05:14:41.750Z,1009.27
2018-03-21T05:15:48.155Z,1009.21
2018-03-21T05:16:54.119Z,1009.29
2018-03-21T05:17:59.557Z,1009.30
2018-03-21T05:19:05.962Z,1009.27
2018-03-21T05:20:11.925Z,1009.31
2018-03-21T05:21:17.809Z,1009.26
2018-03-21T05:22:23.749Z,1009.31
2018-03-21T05:23:29.175Z,1009.32
2018-03-21T05:24:35.124Z,1009.33
2018-03-21T05:25:41.532Z,1009.39
2018-03-21T05:26:46.947Z,1009.40
2018-03-21T05:27:52.947Z,1009.39
2018-03-21T05:28:59.275Z,1009.43
2018-03-21T05:30:04.748Z,1009.42
2018-03-21T05:31:32.118Z,1009.45
2018-03-21T05:32:41.795Z,1009.43
2018-03-21T05:33:47.702Z,1009.41
2018-03-21T05:34:53.148Z,1009.42
2018-03-21T05:35:59.058Z,1009.46
2018-03-21T05:37:04.975Z,1009.44
2018-03-21T05:38:11.387Z,1009.44
2018-03-21T05:39:17.333Z,1009.46
2018-03-21T05:40:22.765Z,1009.48
2018-03-21T05:41:29.161Z,1009.49
2018-03-21T05:42:35.067Z,1009.52
2018-03-21T05:43:40.505Z,1009.49
2018-03-21T05:44:46.926Z,1009.53
2018-03-21T05:45:52.969Z,1009.50
2018-03-21T05:46:58.364Z,1009.55
2018-03-21T05:48:04.204Z,1009.51
2018-03-21T05:49:10.589Z,1009.52
2018-03-21T05:50:16.025Z,1009.55
2018-03-21T05:51:22.926Z,1009.52
2018-03-21T05:52:28.347Z,1009.53
2018-03-21T05:53:33.808Z,1009.53
2018-03-21T05:54:39.718Z,1009.55
2018-03-21T05:55:46.139Z,1009.55
2018-03-21T05:56:51.588Z,1009.61
2018-03-21T05:57:57.480Z,1009.58
2018-03-21T05:59:03.401Z,1009.57
2018-03-21T06:00:09.800Z,1009.59
2018-03-21T06:01:15.258Z,1009.55
2018-03-21T06:02:21.678Z,1009.57
2018-03-21T06:03:27.096Z,1009.56
2018-03-21T06:04:33.025Z,1009.55
2018-03-21T06:05:39.445Z,1009.58
2018-03-21T06:06:45.380Z,1009.59
2018-03-21T06:07:51.324Z,1009.60
2018-03-21T06:08:57.226Z,1009.57
2018-03-21T06:10:02.658Z,1009.64
2018-03-21T06:11:09.178Z,1009.65
2018-03-21T06:12:14.517Z,1009.64
2018-03-21T06:13:20.438Z,1009.73
2018-03-21T06:14:26.933Z,1009.73
2018-03-21T06:15:32.293Z,1009.75
2018-03-21T06:16:38.236Z,1009.73
2018-03-21T06:17:44.688Z,1009.73
2018-03-21T06:18:50.566Z,1009.74
2018-03-21T06:19:55.999Z,1009.71
2018-03-21T06:21:02.440Z,1009.76
2018-03-21T06:22:07.886Z,1009.78
2018-03-21T06:23:13.812Z,1009.79
2018-03-21T06:24:19.735Z,1009.80
2018-03-21T06:25:26.162Z,1009.80
2018-03-21T06:26:31.616Z,1009.78
2018-03-21T06:27:38.043Z,1009.89
2018-03-21T06:28:43.465Z,1009.89
2018-03-21T06:29:49.898Z,1009.89
2018-03-21T06:30:55.843Z,1009.93
2018-03-21T06:32:01.292Z,1009.96
2018-03-21T06:33:07.699Z,1009.98
2018-03-21T06:34:13.143Z,1010.01
2018-03-21T06:35:19.581Z,1010.00
2018-03-21T06:36:25.041Z,1010.01
2018-03-21T06:37:31.465Z,1010.02
2018-03-21T06:38:36.888Z,1010.07
2018-03-21T06:39:43.325Z,1010.10
2018-03-21T06:40:48.751Z,1010.12
2018-03-21T06:41:55.683Z,1010.13
2018-03-21T06:43:01.156Z,1010.13
2018-03-21T06:44:06.565Z,1010.13
2018-03-21T06:45:12.992Z,1010.11
2018-03-21T06:46:18.448Z,1010.15
2018-03-21T06:47:24.956Z,1010.14
2018-03-21T06:48:30.813Z,1010.15
2018-03-21T06:49:36.254Z,1010.21
2018-03-21T06:50:42.686Z,1010.20
2018-03-21T06:51:48.138Z,1010.15
2018-03-21T06:52:54.591Z,1010.14
2018-03-21T06:54:00.026Z,1010.14
2018-03-21T06:55:06.468Z,1010.16
2018-03-21T06:56:12.402Z,1010.15
2018-03-21T06:57:17.888Z,1010.16
2018-03-21T06:58:24.795Z,1010.18
2018-03-21T06:59:29.734Z,1010.13
2018-03-21T07:00:36.169Z,1010.15
2018-03-21T07:01:42.114Z,1010.18
2018-03-21T07:02:47.552Z,1010.21
2018-03-21T07:03:54.024Z,1010.20
2018-03-21T07:04:59.446Z,1010.20
2018-03-21T07:06:05.387Z,1010.22
2018-03-21T07:07:11.328Z,1010.21
2018-03-21T07:08:17.783Z,1010.20
2018-03-21T07:09:23.749Z,1010.25
2018-03-21T07:10:29.674Z,1010.26
2018-03-21T07:11:36.142Z,1010.23
2018-03-21T07:12:41.089Z,1010.23
2018-03-21T07:13:47.071Z,1010.27
2018-03-21T07:14:53.497Z,1010.35
2018-03-21T07:15:59.459Z,1010.34
2018-03-21T07:17:05.901Z,1010.32
2018-03-21T07:18:11.383Z,1010.35
2018-03-21T07:19:17.324Z,1010.38
2018-03-21T07:20:22.764Z,1010.37
2018-03-21T07:21:28.731Z,1010.37
2018-03-21T07:22:35.161Z,1010.40
2018-03-21T07:23:41.137Z,1010.37
2018-03-21T07:24:47.109Z,1010.42
2018-03-21T07:25:53.065Z,1010.43
2018-03-21T07:26:59.009Z,1010.39
2018-03-21T07:28:04.485Z,1010.38
2018-03-21T07:29:10.976Z,1010.42
2018-03-21T07:30:16.441Z,1010.43
2018-03-21T07:31:22.929Z,1010.47
2018-03-21T07:32:28.327Z,1010.51
2018-03-21T07:33:34.790Z,1010.49
2018-03-21T07:34:40.771Z,1010.46
2018-03-21T07:35:46.720Z,1010.54
2018-03-21T07:36:52.672Z,1010.56
2018-03-21T07:37:58.160Z,1010.60
2018-03-21T07:39:04.164Z,1010.62
2018-03-21T07:40:10.122Z,1010.66
2018-03-21T07:41:16.549Z,1010.61
2018-03-21T07:42:22.541Z,1010.60
2018-03-21T07:43:28.011Z,1010.62
2018-03-21T07:44:34.469Z,1010.70
2018-03-21T07:45:40.459Z,1010.63
2018-03-21T07:46:45.931Z,1010.66
2018-03-21T07:47:51.899Z,1010.64
2018-03-21T07:48:57.876Z,1010.70
2018-03-21T07:50:04.402Z,1010.63
2018-03-21T07:51:09.829Z,1010.68
2018-03-21T07:52:16.325Z,1010.71
2018-03-21T07:53:22.275Z,1010.71
2018-03-21T07:54:27.777Z,1010.70
2018-03-21T07:55:34.262Z,1010.71
2018-03-21T07:56:40.294Z,1010.67
2018-03-21T07:57:46.208Z,1010.65
2018-03-21T07:58:52.181Z,1010.65
2018-03-21T07:59:57.686Z,1010.61
2018-03-21T08:01:03.687Z,1010.61
2018-03-21T08:02:09.659Z,1010.63
2018-03-21T08:03:16.129Z,1010.61
2018-03-21T08:04:21.630Z,1010.60
2018-03-21T08:05:28.116Z,1010.63
2018-03-21T08:06:33.724Z,1010.64
2018-03-21T08:07:40.118Z,1010.68
2018-03-21T08:08:46.129Z,1010.68
2018-03-21T08:09:52.127Z,1010.74
2018-03-21T08:10:57.655Z,1010.71
2018-03-21T08:12:03.638Z,1010.68
2018-03-21T08:13:09.651Z,1010.70
2018-03-21T08:14:16.164Z,1010.71
2018-03-21T08:15:22.184Z,1010.71
2018-03-21T08:16:28.228Z,1010.72
2018-03-21T08:17:34.216Z,1010.70
2018-03-21T08:18:40.228Z,1010.74
2018-03-21T08:19:45.738Z,1010.73
2018-03-21T08:20:52.254Z,1010.77
2018-03-21T08:21:58.303Z,1010.72
2018-03-21T08:23:03.807Z,1010.78
2018-03-21T08:24:10.303Z,1010.76
2018-03-21T08:25:16.327Z,1010.81
2018-03-21T08:26:22.401Z,1010.76
2018-03-21T08:27:27.848Z,1010.82
2018-03-21T08:28:33.887Z,1010.79
2018-03-21T08:29:40.395Z,1010.80
2018-03-21T08:30:45.902Z,1010.81
2018-03-21T08:31:52.443Z,1010.78
2018-03-21T08:32:58.439Z,1010.75
2018-03-21T08:34:03.956Z,1010.79
2018-03-21T08:35:09.968Z,1010.81
2018-03-21T08:36:16.010Z,1010.85
2018-03-21T08:37:22.541Z,1010.84
2018-03-21T08:38:28.019Z,1010.82
2018-03-21T08:39:34.057Z,1010.80
2018-03-21T08:40:40.569Z,1010.82
2018-03-21T08:41:46.277Z,1010.84
2018-03-21T08:42:52.621Z,1010.88
2018-03-21T08:43:58.137Z,1010.87
2018-03-21T08:45:04.182Z,1010.91
2018-03-21T08:46:10.186Z,1010.91
2018-03-21T08:47:16.701Z,1010.92
2018-03-21T08:48:22.214Z,1010.91
2018-03-21T08:49:28.237Z,1010.93
2018-03-21T08:50:34.265Z,1010.89
2018-03-21T08:51:40.804Z,1010.87
2018-03-21T08:52:46.837Z,1010.90
2018-03-21T08:53:52.339Z,1010.90
2018-03-21T08:54:58.371Z,1010.89
2018-03-21T08:56:04.387Z,1010.92
2018-03-21T08:57:10.447Z,1010.93
2018-03-21T08:58:16.965Z,1010.92
2018-03-21T08:59:22.466Z,1010.95
2018-03-21T09:00:28.985Z,1010.93
2018-03-21T09:01:35.024Z,1010.92
2018-03-21T09:02:40.552Z,1010.92
2018-03-21T09:03:47.609Z,1010.94
2018-03-21T09:04:52.623Z,1010.99
2018-03-21T09:05:59.150Z,1011.00
2018-03-21T09:07:04.705Z,1010.99
2018-03-21T09:08:11.237Z,1011.01
2018-03-21T09:09:16.751Z,1010.98
2018-03-21T09:10:22.786Z,1010.98
2018-03-21T09:11:28.825Z,1011.01
2018-03-21T09:12:34.961Z,1011.01
2018-03-21T09:13:40.924Z,1010.97
2018-03-21T09:14:46.934Z,1010.96
2018-03-21T09:15:52.984Z,1010.95
2018-03-21T09:16:59.515Z,1010.98
2018-03-21T09:18:05.560Z,1010.97
2018-03-21T09:19:11.123Z,1010.96
2018-03-21T09:20:17.150Z,1010.95
2018-03-21T09:21:23.678Z,1010.91
2018-03-21T09:22:29.245Z,1010.96
2018-03-21T09:23:35.346Z,1010.92
2018-03-21T09:24:41.828Z,1010.89
2018-03-21T09:25:47.877Z,1010.88
2018-03-21T09:26:53.932Z,1010.89
2018-03-21T09:27:59.509Z,1010.88
2018-03-21T09:29:06.073Z,1010.87
2018-03-21T09:30:12.091Z,1010.92
2018-03-21T09:31:17.654Z,1010.88
2018-03-21T09:32:23.729Z,1010.86
2018-03-21T09:33:29.787Z,1010.88
2018-03-21T09:34:35.864Z,1010.86
2018-03-21T09:35:42.391Z,1010.84
2018-03-21T09:36:47.977Z,1010.82
2018-03-21T09:37:54.520Z,1010.83
2018-03-21T09:39:00.122Z,1010.81
2018-03-21T09:40:06.656Z,1010.80
2018-03-21T09:41:12.731Z,1010.84
2018-03-21T09:42:18.781Z,1010.81
2018-03-21T09:43:24.385Z,1010.77
2018-03-21T09:44:30.951Z,1010.73
2018-03-21T09:45:36.511Z,1010.71
2018-03-21T09:46:42.574Z,1010.74
2018-03-21T09:47:49.153Z,1010.68
2018-03-21T09:48:55.211Z,1010.69
2018-03-21T09:50:01.320Z,1010.68
2018-03-21T09:51:06.865Z,1010.68
2018-03-21T09:52:13.445Z,1010.69
2018-03-21T09:53:19.026Z,1010.68
2018-03-21T09:54:25.114Z,1010.67
2018-03-21T09:55:31.776Z,1010.68
2018-03-21T09:56:37.819Z,1010.64
2018-03-21T09:57:43.842Z,1010.66
2018-03-21T09:58:49.922Z,1010.64
2018-03-21T09:59:56.035Z,1010.64
2018-03-21T10:01:02.092Z,1010.65
2018-03-21T10:02:08.246Z,1010.63
2018-03-21T10:03:13.753Z,1010.66
2018-03-21T10:04:20.335Z,1010.64
2018-03-21T10:05:27.442Z,1010.63
2018-03-21T10:06:32.521Z,1010.58
2018-03-21T10:07:38.115Z,1010.59
2018-03-21T10:08:44.220Z,1010.60
2018-03-21T10:09:50.469Z,1010.57
2018-03-21T10:10:56.466Z,1010.51
2018-03-21T10:12:03.014Z,1010.54
2018-03-21T10:13:08.590Z,1010.53
2018-03-21T10:14:15.172Z,1010.51
2018-03-21T10:15:21.253Z,1010.50
2018-03-21T10:16:26.932Z,1010.52
2018-03-21T10:17:32.920Z,1010.54
2018-03-21T10:18:39.087Z,1010.57
2018-03-21T10:19:45.190Z,1010.56
2018-03-21T10:20:51.235Z,1010.59
2018-03-21T10:21:57.295Z,1010.59
2018-03-21T10:23:03.511Z,1010.56
2018-03-21T10:24:09.565Z,1010.57
2018-03-21T10:25:15.604Z,1010.60
2018-03-21T10:26:22.316Z,1010.63
2018-03-21T10:27:27.859Z,1010.59
2018-03-21T10:28:34.461Z,1010.61
2018-03-21T10:29:40.062Z,1010.59
2018-03-21T10:30:46.103Z,1010.58
2018-03-21T10:31:52.271Z,1010.56
2018-03-21T10:32:58.413Z,1010.58
2018-03-21T10:34:04.426Z,1010.60
2018-03-21T10:35:11.102Z,1010.59
2018-03-21T10:36:17.294Z,1010.57
2018-03-21T10:37:23.753Z,1010.54
2018-03-21T10:38:28.994Z,1010.55
2018-03-21T10:39:34.993Z,1010.48
2018-03-21T10:40:41.109Z,1010.49
2018-03-21T10:41:47.744Z,1010.49
2018-03-21T10:42:53.344Z,1010.50
2018-03-21T10:43:59.454Z,1010.51
2018-03-21T10:45:06.116Z,1010.47
2018-03-21T10:46:12.180Z,1010.48
2018-03-21T10:47:17.839Z,1010.48
2018-03-21T10:48:23.935Z,1010.46
2018-03-21T10:49:30.561Z,1010.45
2018-03-21T10:50:37.183Z,1010.49
2018-03-21T10:51:42.315Z,1010.48
2018-03-21T10:52:48.466Z,1010.46
2018-03-21T10:53:54.588Z,1010.45
2018-03-21T10:55:01.184Z,1010.42
2018-03-21T10:56:06.814Z,1010.47
2018-03-21T10:57:12.958Z,1010.40
2018-03-21T10:58:19.563Z,1010.37
2018-03-21T10:59:25.196Z,1010.40
2018-03-21T11:00:31.319Z,1010.36
2018-03-21T11:01:37.448Z,1010.37
2018-03-21T11:02:43.606Z,1010.37
2018-03-21T11:03:50.217Z,1010.35
2018-03-21T11:04:55.852Z,1010.36
2018-03-21T11:06:02.016Z,1010.43
2018-03-21T11:07:08.165Z,1010.40
2018-03-21T11:08:14.272Z,1010.40
2018-03-21T11:09:20.386Z,1010.32
2018-03-21T11:10:26.501Z,1010.33
2018-03-21T11:11:32.637Z,1010.34
2018-03-21T11:12:38.778Z,1010.33
2018-03-21T11:13:44.927Z,1010.35
2018-03-21T11:14:51.546Z,1010.36
2018-03-21T11:15:57.698Z,1010.33
2018-03-21T11:17:03.339Z,1010.34
2018-03-21T11:18:09.520Z,1010.32
2018-03-21T11:19:15.615Z,1010.28
2018-03-21T11:20:22.751Z,1010.29
2018-03-21T11:21:27.958Z,1010.30
2018-03-21T11:22:34.034Z,1010.29
2018-03-21T11:23:40.208Z,1010.28
2018-03-21T11:24:46.334Z,1010.21
2018-03-21T11:25:52.489Z,1010.21
2018-03-21T11:26:58.636Z,1010.24
2018-03-21T11:28:04.820Z,1010.15
2018-03-21T11:29:10.944Z,1010.09
2018-03-21T11:30:17.088Z,1010.07
2018-03-21T11:31:23.238Z,1010.07
2018-03-21T11:32:29.397Z,1010.04
2018-03-21T11:33:35.600Z,1010.04
2018-03-21T11:34:41.725Z,1010.09
2018-03-21T11:35:47.896Z,1010.07
2018-03-21T11:36:54.082Z,1010.08
2018-03-21T11:38:00.290Z,1010.04
2018-03-21T11:39:06.556Z,1010.10
2018-03-21T11:40:13.285Z,1010.00
2018-03-21T11:41:19.074Z,1010.03
2018-03-21T11:42:25.933Z,1010.02
2018-03-21T11:43:31.763Z,1009.96
2018-03-21T11:44:39.110Z,1010.01
2018-03-21T11:45:44.994Z,1009.96
2018-03-21T11:46:50.986Z,1009.96
2018-03-21T11:47:57.362Z,1009.99
2018-03-21T11:49:03.848Z,1010.02
2018-03-21T11:50:10.311Z,1010.00
2018-03-21T11:51:17.413Z,1010.00
2018-03-21T11:52:23.350Z,1009.97
2018-03-21T11:53:29.893Z,1009.94
2018-03-21T11:54:36.571Z,1009.94
2018-03-21T11:55:43.569Z,1009.94
2018-03-21T11:56:49.680Z,1009.88
2018-03-21T11:57:56.304Z,1009.90
2018-03-21T11:59:02.905Z,1009.93
2018-03-21T12:00:09.566Z,1009.91
2018-03-21T12:01:16.165Z,1009.92
2018-03-21T12:02:22.780Z,1009.87
2018-03-21T12:03:29.519Z,1009.90
2018-03-21T12:04:36.133Z,1009.93
2018-03-21T12:05:42.778Z,1009.91
2018-03-21T12:06:49.468Z,1009.87
2018-03-21T12:07:56.174Z,1009.93
2018-03-21T12:09:02.889Z,1009.83
2018-03-21T12:10:11.163Z,1009.78
2018-03-21T12:11:16.324Z,1009.72
2018-03-21T12:12:23.073Z,1009.70
2018-03-21T12:13:30.297Z,1009.67
2018-03-21T12:14:36.544Z,1009.69
2018-03-21T12:15:43.278Z,1009.71
2018-03-21T12:16:50.018Z,1009.74
2018-03-21T12:17:57.253Z,1009.74
2018-03-21T12:19:03.526Z,1009.72
2018-03-21T12:20:10.339Z,1009.73
2018-03-21T12:21:17.119Z,1009.73
2018-03-21T12:22:23.914Z,1009.74
2018-03-21T12:23:30.737Z,1009.75
2018-03-21T12:24:38.034Z,1009.79
2018-03-21T12:25:44.401Z,1009.71
2018-03-21T12:26:52.195Z,1009.69
2018-03-21T12:27:58.554Z,1009.71
2018-03-21T12:29:04.905Z,1009.65
2018-03-21T12:30:12.279Z,1009.64
2018-03-21T12:31:18.687Z,1009.64
2018-03-21T12:32:25.552Z,1009.69
2018-03-21T12:33:32.436Z,1009.63
2018-03-21T12:34:39.855Z,1009.60
2018-03-21T12:35:46.222Z,1009.63
2018-03-21T12:36:53.103Z,1009.58
2018-03-21T12:37:59.994Z,1009.57
2018-03-21T12:39:06.906Z,1009.53
2018-03-21T12:40:14.309Z,1009.57
2018-03-21T12:41:20.739Z,1009.56
2018-03-21T12:42:27.642Z,1009.56
2018-03-21T12:43:34.559Z,1009.53
2018-03-21T12:44:41.520Z,1009.53
2018-03-21T12:45:48.397Z,1009.49
2018-03-21T12:46:55.350Z,1009.48
2018-03-21T12:48:02.253Z,1009.41
2018-03-21T12:49:09.165Z,1009.42
2018-03-21T12:50:16.069Z,1009.42
2018-03-21T12:51:23.026Z,1009.36
2018-03-21T12:52:29.964Z,1009.44
2018-03-21T12:53:36.934Z,1009.43
2018-03-21T12:54:43.766Z,1009.41
2018-03-21T12:55:50.762Z,1009.39
2018-03-21T12:56:57.672Z,1009.41
2018-03-21T12:58:04.624Z,1009.40
2018-03-21T12:59:11.575Z,1009.38
2018-03-21T13:00:18.542Z,1009.44
2018-03-21T13:01:25.526Z,1009.42
2018-03-21T13:02:32.559Z,1009.38
2018-03-21T13:03:39.741Z,1009.34
2018-03-21T13:04:46.594Z,1009.36
2018-03-21T13:05:53.669Z,1009.34
2018-03-21T13:07:00.753Z,1009.31
2018-03-21T13:08:07.820Z,1009.30
2018-03-21T13:09:14.884Z,1009.32
2018-03-21T13:10:22.005Z,1009.35
2018-03-21T13:11:29.112Z,1009.32
2018-03-21T13:12:36.234Z,1009.31
2018-03-21T13:13:43.345Z,1009.26
2018-03-21T13:14:50.471Z,1009.34
2018-03-21T13:15:57.604Z,1009.36
2018-03-21T13:17:04.743Z,1009.33
2018-03-21T13:18:11.930Z,1009.38
2018-03-21T13:19:18.982Z,1009.38